Wetterdaten: Woche 06.08.18 - 12.08.18 (KW32)
Datum Zeit Temp. Aussen Temp. o. S. +5cm Feuchte Auss Luftdruck Regen Sonnenschein Regendauer Solar Windben Empfang
06.08.2018 00:00 19,9 C 18,3 C 18,2 C 68 % 1017,8 hPa 0,0 l/m 0,00 h 0,00 h 0 W/m 0,8 km/h (0 Bft) 96,59 %
06.08.2018 01:00 18,9 C 17,2 C 17,0 C 71 % 1017,9 hPa 0,0 l/m 0,00 h 0,00 h 0 W/m 0,1 km/h (0 Bft) 98,22 %
06.08.2018 02:00 18,0 C 16,4 C 16,7 C 75 % 1017,6 hPa 0,0 l/m 0,00 h 0,00 h 0 W/m 0,5 km/h (0 Bft) 96,76 %
06.08.2018 03:00 17,3 C 16,0 C 16,6 C 78 % 1017,0 hPa 0,0 l/m 0,00 h 0,00 h 0 W/m 1,6 km/h (1 Bft) 96,35 %
06.08.2018 04:00 16,9 C 15,6 C 16,4 C 80 % 1016,6 hPa 0,0 l/m 0,00 h 0,00 h 0 W/m 1,3 km/h (1 Bft) 99,58 %
06.08.2018 05:00 16,4 C 14,8 C 15,6 C 82 % 1016,2 hPa 0,0 l/m 0,00 h 0,00 h 0 W/m 0,3 km/h (0 Bft) 96,74 %
06.08.2018 06:00 15,8 C 14,4 C 15,2 C 84 % 1015,8 hPa 0,0 l/m 0,00 h 0,00 h 11 W/m 0,2 km/h (0 Bft) 95,71 %
06.08.2018 07:00 15,5 C 15,5 C 15,5 C 86 % 1015,8 hPa 0,0 l/m 0,00 h 0,00 h 25 W/m 0,2 km/h (0 Bft) 98,50 %
06.08.2018 08:00 16,9 C 19,4 C 17,6 C 86 % 1015,7 hPa 0,0 l/m 0,00 h 0,00 h 44 W/m 4,6 km/h (1 Bft) 98,04 %
06.08.2018 09:00 21,6 C 24,4 C 20,7 C 67 % 1015,3 hPa 0,0 l/m 0,87 h 0,00 h 388 W/m 9,3 km/h (2 Bft) 97,51 %
06.08.2018 10:00 25,6 C 29,5 C 22,8 C 55 % 1014,8 hPa 0,0 l/m 1,00 h 0,00 h 581 W/m 11,4 km/h (2 Bft) 97,94 %
06.08.2018 11:00 29,2 C 35,7 C 25,3 C 49 % 1014,2 hPa 0,0 l/m 1,00 h 0,00 h 676 W/m 12,0 km/h (2 Bft) 96,79 %
06.08.2018 12:00 32,0 C 39,1 C 27,1 C 44 % 1013,5 hPa 0,0 l/m 0,97 h 0,00 h 695 W/m 7,5 km/h (2 Bft) 98,93 %
06.08.2018 13:00 32,7 C 35,1 C 28,3 C 41 % 1012,9 hPa 0,0 l/m 1,00 h 0,00 h 772 W/m 8,2 km/h (2 Bft) 96,70 %
06.08.2018 14:00 32,4 C 31,9 C 29,1 C 40 % 1012,5 hPa 0,0 l/m 1,00 h 0,00 h 831 W/m 7,9 km/h (2 Bft) 97,94 %
06.08.2018 15:00 32,7 C 32,6 C 29,7 C 39 % 1011,8 hPa 0,0 l/m 1,00 h 0,00 h 781 W/m 7,2 km/h (2 Bft) 99,64 %
06.08.2018 16:00 33,4 C 36,3 C 30,1 C 38 % 1011,1 hPa 0,0 l/m 1,00 h 0,00 h 685 W/m 7,8 km/h (2 Bft) 96,26 %
06.08.2018 17:00 33,8 C 34,6 C 30,4 C 38 % 1010,6 hPa 0,0 l/m 1,00 h 0,00 h 565 W/m 6,2 km/h (2 Bft) 94,37 %
06.08.2018 18:00 33,7 C 33,1 C 30,5 C 37 % 1010,1 hPa 0,0 l/m 0,77 h 0,00 h 339 W/m 6,1 km/h (2 Bft) 98,01 %
06.08.2018 19:00 32,3 C 27,2 C 21,4 C 42 % 1009,8 hPa 0,0 l/m 0,03 h 0,00 h 70 W/m 5,4 km/h (1 Bft) 99,29 %
06.08.2018 20:00 29,3 C 26,8 C 19,2 C 48 % 1009,6 hPa 0,0 l/m 0,00 h 0,00 h 26 W/m 2,2 km/h (1 Bft) 98,23 %
06.08.2018 21:00 27,3 C 25,0 C 18,3 C 54 % 1009,7 hPa 0,0 l/m 0,00 h 0,00 h 7 W/m 0,0 km/h (0 Bft) 97,23 %
06.08.2018 22:00 25,3 C 23,5 C 20,0 C 58 % 1009,9 hPa 0,0 l/m 0,00 h 0,00 h 0 W/m 0,2 km/h (0 Bft) 96,44 %
06.08.2018 23:00 23,9 C 22,4 C 20,0 C 60 % 1009,9 hPa 0,0 l/m 0,00 h 0,00 h 0 W/m 0,0 km/h (0 Bft) 99,29 %
07.08.2018 00:00 22,8 C 21,4 C 19,5 C 63 % 1009,7 hPa 0,0 l/m 0,00 h 0,00 h 0 W/m 0,0 km/h (0 Bft) 93,15 %
07.08.2018 01:00 21,8 C 20,3 C 19,2 C 66 % 1009,3 hPa 0,0 l/m 0,00 h 0,00 h 0 W/m 0,1 km/h (0 Bft) 95,45 %
07.08.2018 02:00 20,9 C 19,4 C 18,7 C 67 % 1008,8 hPa 0,0 l/m 0,00 h 0,00 h 0 W/m 0,4 km/h (0 Bft) 99,57 %
07.08.2018 03:00 20,0 C 18,7 C 18,2 C 70 % 1008,5 hPa 0,0 l/m 0,00 h 0,00 h 0 W/m 0,4 km/h (0 Bft) 98,08 %
07.08.2018 04:00 19,2 C 17,5 C 17,4 C 74 % 1008,3 hPa 0,0 l/m 0,00 h 0,00 h 0 W/m 0,0 km/h (0 Bft) 95,37 %
07.08.2018 05:00 18,3 C 16,8 C 16,8 C 78 % 1008,1 hPa 0,0 l/m 0,00 h 0,00 h 0 W/m 0,0 km/h (0 Bft) 98,83 %
07.08.2018 06:00 17,8 C 17,7 C 17,1 C 82 % 1008,1 hPa 0,0 l/m 0,00 h 0,00 h 14 W/m 2,8 km/h (1 Bft) 97,72 %
07.08.2018 07:00 18,9 C 19,8 C 18,6 C 78 % 1008,3 hPa 0,0 l/m 0,00 h 0,00 h 33 W/m 7,3 km/h (2 Bft) 97,81 %
07.08.2018 08:00 20,8 C 21,9 C 19,9 C 71 % 1008,4 hPa 0,0 l/m 0,00 h 0,00 h 52 W/m 7,3 km/h (2 Bft) 96,82 %
07.08.2018 09:00 23,5 C 26,0 C 22,2 C 65 % 1008,2 hPa 0,0 l/m 0,87 h 0,00 h 370 W/m 5,6 km/h (1 Bft) 96,71 %
07.08.2018 10:00 27,1 C 33,3 C 24,1 C 55 % 1008,0 hPa 0,0 l/m 1,00 h 0,00 h 540 W/m 3,9 km/h (1 Bft) 98,92 %
07.08.2018 11:00 31,5 C 41,7 C 26,2 C 47 % 1007,6 hPa 0,0 l/m 1,00 h 0,00 h 657 W/m 4,6 km/h (1 Bft) 96,67 %
07.08.2018 12:00 35,2 C 42,9 C 28,7 C 40 % 1007,2 hPa 0,0 l/m 1,00 h 0,00 h 583 W/m 6,5 km/h (2 Bft) 96,60 %
07.08.2018 13:00 35,9 C 37,8 C 30,8 C 36 % 1006,6 hPa 0,0 l/m 1,00 h 0,00 h 715 W/m 7,8 km/h (2 Bft) 96,01 %
07.08.2018 14:00 35,5 C 35,0 C 31,9 C 33 % 1006,1 hPa 0,0 l/m 1,00 h 0,00 h 822 W/m 7,7 km/h (2 Bft) 99,57 %
07.08.2018 15:00 35,8 C 35,6 C 32,3 C 33 % 1005,5 hPa 0,0 l/m 1,00 h 0,00 h 742 W/m 7,0 km/h (2 Bft) 96,87 %
07.08.2018 16:00 36,1 C 37,8 C 32,6 C 33 % 1005,2 hPa 0,0 l/m 1,00 h 0,00 h 631 W/m 7,1 km/h (2 Bft) 97,11 %
07.08.2018 17:00 36,2 C 36,3 C 32,9 C 32 % 1005,0 hPa 0,0 l/m 1,00 h 0,00 h 479 W/m 6,8 km/h (2 Bft) 97,78 %
07.08.2018 18:00 35,7 C 34,7 C 32,4 C 32 % 1005,0 hPa 0,0 l/m 0,70 h 0,00 h 279 W/m 6,3 km/h (2 Bft) 97,87 %
07.08.2018 19:00 34,1 C 32,2 C 30,2 C 34 % 1005,1 hPa 0,0 l/m 0,00 h 0,00 h 78 W/m 5,4 km/h (1 Bft) 99,15 %
07.08.2018 20:00 31,6 C 28,4 C 22,8 C 44 % 1005,0 hPa 0,0 l/m 0,00 h 0,00 h 24 W/m 0,2 km/h (0 Bft) 96,87 %
07.08.2018 21:00 27,8 C 23,9 C 19,1 C 59 % 1005,0 hPa 0,0 l/m 0,00 h 0,00 h 5 W/m 0,0 km/h (0 Bft) 97,21 %
07.08.2018 22:00 25,8 C 24,7 C 21,0 C 58 % 1005,3 hPa 0,0 l/m 0,00 h 0,00 h 0 W/m 0,9 km/h (0 Bft) 98,86 %
07.08.2018 23:00 25,3 C 25,2 C 22,1 C 55 % 1004,4 hPa 0,0 l/m 0,00 h 0,00 h 0 W/m 3,1 km/h (1 Bft) 95,69 %
08.08.2018 00:00 26,2 C 26,1 C 23,6 C 50 % 1003,8 hPa 0,0 l/m 0,00 h 0,00 h 0 W/m 8,7 km/h (2 Bft) 98,14 %
08.08.2018 01:00 26,3 C 24,4 C 22,6 C 50 % 1003,3 hPa 0,0 l/m 0,00 h 0,00 h 0 W/m 2,1 km/h (1 Bft) 97,64 %
08.08.2018 02:00 25,0 C 24,2 C 23,0 C 54 % 1004,4 hPa 0,0 l/m 0,00 h 0,00 h 0 W/m 6,5 km/h (2 Bft) 96,89 %
08.08.2018 03:00 25,0 C 23,6 C 23,1 C 61 % 1005,3 hPa 0,0 l/m 0,00 h 0,00 h 0 W/m 2,4 km/h (1 Bft) 98,71 %
08.08.2018 04:00 24,4 C 23,0 C 22,3 C 65 % 1004,6 hPa 0,0 l/m 0,00 h 0,20 h 0 W/m 2,2 km/h (1 Bft) 95,85 %
08.08.2018 05:00 23,5 C 20,6 C 21,0 C 73 % 1005,5 hPa 0,8 l/m 0,00 h 0,67 h 0 W/m 2,9 km/h (1 Bft) 98,43 %
08.08.2018 06:00 21,9 C 18,8 C 18,8 C 86 % 1008,2 hPa 3,0 l/m 0,00 h 1,00 h 0 W/m 3,7 km/h (1 Bft) 97,26 %
08.08.2018 07:00 20,5 C 18,9 C 18,5 C 92 % 1007,9 hPa 0,4 l/m 0,00 h 0,33 h 18 W/m 7,5 km/h (2 Bft) 96,30 %
08.08.2018 08:00 20,2 C 19,0 C 18,9 C 94 % 1007,2 hPa 0,0 l/m 0,00 h 0,00 h 94 W/m 6,2 km/h (2 Bft) 99,93 %
08.08.2018 09:00 21,5 C 20,8 C 20,8 C 89 % 1006,9 hPa 0,0 l/m 0,37 h 0,00 h 236 W/m 10,7 km/h (2 Bft) 95,82 %
08.08.2018 10:00 22,9 C 23,7 C 22,1 C 83 % 1007,6 hPa 0,0 l/m 0,33 h 0,00 h 264 W/m 9,0 km/h (2 Bft) 97,29 %
08.08.2018 11:00 24,2 C 25,7 C 23,0 C 78 % 1008,5 hPa 0,0 l/m 0,20 h 0,00 h 298 W/m 9,5 km/h (2 Bft) 99,72 %
08.08.2018 12:00 25,8 C 27,0 C 24,0 C 68 % 1009,5 hPa 0,0 l/m 0,30 h 0,00 h 361 W/m 12,8 km/h (3 Bft) 96,02 %
08.08.2018 13:00 25,6 C 25,5 C 23,8 C 68 % 1010,4 hPa 0,0 l/m 0,07 h 0,00 h 246 W/m 10,1 km/h (2 Bft) 97,00 %
08.08.2018 14:00 24,9 C 24,8 C 23,4 C 67 % 1011,3 hPa 0,0 l/m 0,13 h 0,00 h 308 W/m 10,0 km/h (2 Bft) 99,43 %
08.08.2018 15:00 24,2 C 23,9 C 22,8 C 69 % 1011,6 hPa 0,0 l/m 0,10 h 0,00 h 241 W/m 9,4 km/h (2 Bft) 97,22 %
08.08.2018 16:00 24,0 C 23,8 C 22,8 C 68 % 1011,8 hPa 0,0 l/m 0,17 h 0,00 h 204 W/m 8,9 km/h (2 Bft) 96,61 %
08.08.2018 17:00 23,9 C 24,0 C 22,9 C 67 % 1011,9 hPa 0,0 l/m 0,27 h 0,00 h 224 W/m 7,7 km/h (2 Bft) 97,88 %
08.08.2018 18:00 24,3 C 24,0 C 22,9 C 61 % 1011,9 hPa 0,0 l/m 0,17 h 0,00 h 157 W/m 7,9 km/h (2 Bft) 98,64 %
08.08.2018 19:00 24,2 C 23,5 C 22,5 C 61 % 1011,9 hPa 0,0 l/m 0,00 h 0,00 h 59 W/m 6,3 km/h (2 Bft) 96,23 %
08.08.2018 20:00 23,2 C 21,8 C 21,3 C 63 % 1012,2 hPa 0,0 l/m 0,13 h 0,00 h 29 W/m 5,5 km/h (1 Bft) 97,46 %
08.08.2018 21:00 21,9 C 20,1 C 20,1 C 67 % 1013,0 hPa 0,0 l/m 0,00 h 0,00 h 7 W/m 3,1 km/h (1 Bft) 99,57 %
08.08.2018 22:00 20,6 C 18,6 C 18,6 C 72 % 1013,5 hPa 0,0 l/m 0,00 h 0,00 h 0 W/m 0,8 km/h (0 Bft) 95,10 %
08.08.2018 23:00 19,1 C 17,0 C 17,0 C 76 % 1013,5 hPa 0,0 l/m 0,00 h 0,00 h 0 W/m 0,0 km/h (0 Bft) 97,47 %
09.08.2018 00:00 18,0 C 16,6 C 16,7 C 80 % 1013,5 hPa 0,0 l/m 0,00 h 0,00 h 0 W/m 0,0 km/h (0 Bft) 99,48 %
09.08.2018 01:00 17,6 C 17,0 C 16,8 C 83 % 1013,4 hPa 0,0 l/m 0,00 h 0,00 h 0 W/m 0,0 km/h (0 Bft) 96,80 %
09.08.2018 02:00 17,6 C 16,9 C 16,9 C 84 % 1013,4 hPa 0,0 l/m 0,00 h 0,00 h 0 W/m 0,0 km/h (0 Bft) 96,71 %
09.08.2018 03:00 17,3 C 15,9 C 16,0 C 84 % 1013,0 hPa 0,0 l/m 0,00 h 0,00 h 0 W/m 0,0 km/h (0 Bft) 97,83 %
09.08.2018 04:00 16,6 C 15,3 C 15,7 C 85 % 1012,4 hPa 0,0 l/m 0,00 h 0,00 h 0 W/m 0,0 km/h (0 Bft) 97,30 %
09.08.2018 05:00 16,3 C 15,7 C 16,0 C 86 % 1012,2 hPa 0,0 l/m 0,00 h 0,00 h 0 W/m 0,1 km/h (0 Bft) 98,67 %
09.08.2018 06:00 16,4 C 16,1 C 16,3 C 87 % 1012,1 hPa 0,0 l/m 0,00 h 0,00 h 11 W/m 0,2 km/h (0 Bft) 95,62 %
09.08.2018 07:00 16,9 C 17,6 C 17,2 C 88 % 1011,7 hPa 0,0 l/m 0,13 h 0,00 h 57 W/m 1,4 km/h (1 Bft) 97,57 %
09.08.2018 08:00 18,2 C 20,1 C 18,6 C 85 % 1011,1 hPa 0,0 l/m 0,20 h 0,00 h 129 W/m 4,8 km/h (1 Bft) 98,32 %
09.08.2018 09:00 20,3 C 22,3 C 20,0 C 77 % 1010,6 hPa 0,0 l/m 0,20 h 0,00 h 217 W/m 6,3 km/h (2 Bft) 96,94 %
09.08.2018 10:00 22,9 C 26,7 C 22,1 C 70 % 1009,7 hPa 0,0 l/m 0,90 h 0,00 h 445 W/m 8,8 km/h (2 Bft) 97,91 %
09.08.2018 11:00 24,6 C 23,6 C 21,0 C 69 % 1008,9 hPa 1,6 l/m 0,30 h 0,47 h 254 W/m 8,2 km/h (2 Bft) 98,93 %
09.08.2018 12:00 23,4 C 25,7 C 19,5 C 82 % 1007,1 hPa 0,2 l/m 0,60 h 0,00 h 496 W/m 8,9 km/h (2 Bft) 95,28 %
09.08.2018 13:00 24,8 C 28,3 C 23,6 C 76 % 1005,9 hPa 0,0 l/m 0,50 h 0,00 h 415 W/m 6,4 km/h (2 Bft) 98,40 %
09.08.2018 14:00 26,9 C 26,2 C 23,6 C 67 % 1004,9 hPa 1,8 l/m 0,00 h 0,30 h 128 W/m 10,1 km/h (2 Bft) 98,51 %
09.08.2018 15:00 25,0 C 22,1 C 21,0 C 82 % 1004,7 hPa 0,2 l/m 0,50 h 0,37 h 336 W/m 11,0 km/h (2 Bft) 96,02 %
09.08.2018 16:00 24,8 C 24,9 C 22,3 C 78 % 1005,7 hPa 0,0 l/m 0,07 h 0,00 h 195 W/m 12,1 km/h (2 Bft) 98,01 %
09.08.2018 17:00 24,6 C 24,4 C 23,0 C 78 % 1005,8 hPa 0,0 l/m 0,00 h 0,00 h 177 W/m 10,0 km/h (2 Bft) 98,23 %
09.08.2018 18:00 25,1 C 25,2 C 23,8 C 69 % 1005,7 hPa 0,2 l/m 0,43 h 0,00 h 183 W/m 15,7 km/h (3 Bft) 97,20 %
09.08.2018 19:00 24,1 C 21,6 C 21,2 C 74 % 1006,2 hPa 0,6 l/m 0,00 h 0,47 h 42 W/m 16,6 km/h (3 Bft) 96,73 %
09.08.2018 20:00 20,7 C 18,5 C 19,0 C 86 % 1007,3 hPa 0,0 l/m 0,23 h 0,00 h 29 W/m 13,1 km/h (3 Bft) 97,22 %
09.08.2018 21:00 20,1 C 19,3 C 19,1 C 81 % 1008,6 hPa 0,0 l/m 0,00 h 0,00 h 10 W/m 16,5 km/h (3 Bft) 97,60 %
09.08.2018 22:00 19,4 C 18,4 C 18,1 C 79 % 1010,1 hPa 0,0 l/m 0,00 h 0,00 h 0 W/m 17,0 km/h (3 Bft) 98,40 %
09.08.2018 23:00 18,0 C 16,9 C 16,9 C 81 % 1011,7 hPa 0,0 l/m 0,00 h 0,17 h 0 W/m 14,3 km/h (3 Bft) 95,87 %
10.08.2018 00:00 16,7 C 15,6 C 15,8 C 87 % 1013,1 hPa 0,0 l/m 0,00 h 0,90 h 0 W/m 11,7 km/h (2 Bft) 97,58 %
10.08.2018 01:00 16,0 C 15,6 C 15,6 C 87 % 1014,4 hPa 0,0 l/m 0,00 h 0,03 h 0 W/m 9,0 km/h (2 Bft) 98,64 %
10.08.2018 02:00 16,0 C 15,5 C 15,4 C 85 % 1015,7 hPa 0,0 l/m 0,00 h 0,00 h 0 W/m 7,4 km/h (2 Bft) 97,11 %
10.08.2018 03:00 15,6 C 14,7 C 14,9 C 86 % 1016,7 hPa 0,0 l/m 0,00 h 0,00 h 0 W/m 6,0 km/h (2 Bft) 95,94 %
10.08.2018 04:00 14,9 C 13,8 C 14,1 C 87 % 1017,2 hPa 0,0 l/m 0,00 h 0,00 h 0 W/m 6,0 km/h (2 Bft) 98,71 %
10.08.2018 05:00 14,2 C 13,3 C 13,8 C 90 % 1017,7 hPa 0,0 l/m 0,00 h 0,00 h 0 W/m 3,9 km/h (1 Bft) 97,22 %
10.08.2018 06:00 13,9 C 13,3 C 13,4 C 91 % 1018,2 hPa 0,0 l/m 0,00 h 0,00 h 13 W/m 4,6 km/h (1 Bft) 97,32 %
10.08.2018 07:00 14,1 C 14,0 C 13,9 C 91 % 1018,8 hPa 0,0 l/m 0,00 h 0,00 h 39 W/m 4,0 km/h (1 Bft) 97,15 %
10.08.2018 08:00 15,0 C 15,4 C 14,9 C 89 % 1019,2 hPa 0,0 l/m 0,00 h 0,00 h 62 W/m 8,9 km/h (2 Bft) 97,49 %
10.08.2018 09:00 16,9 C 18,9 C 16,4 C 83 % 1019,5 hPa 0,0 l/m 0,90 h 0,00 h 409 W/m 9,7 km/h (2 Bft) 97,48 %
10.08.2018 10:00 18,8 C 20,2 C 17,5 C 72 % 1019,7 hPa 0,0 l/m 0,70 h 0,00 h 424 W/m 11,3 km/h (2 Bft) 95,66 %
10.08.2018 11:00 20,2 C 23,5 C 18,4 C 64 % 1019,9 hPa 0,0 l/m 0,57 h 0,00 h 462 W/m 11,7 km/h (2 Bft) 99,65 %
10.08.2018 12:00 22,1 C 26,7 C 20,3 C 54 % 1020,0 hPa 0,0 l/m 0,30 h 0,00 h 330 W/m 13,5 km/h (3 Bft) 97,41 %
10.08.2018 13:00 23,0 C 24,4 C 21,3 C 50 % 1019,8 hPa 0,0 l/m 0,73 h 0,00 h 715 W/m 14,0 km/h (3 Bft) 95,02 %
10.08.2018 14:00 22,8 C 22,9 C 21,2 C 50 % 1019,7 hPa 0,0 l/m 0,33 h 0,00 h 487 W/m 11,4 km/h (2 Bft) 99,06 %
10.08.2018 15:00 23,1 C 23,3 C 22,0 C 49 % 1019,5 hPa 0,0 l/m 0,93 h 0,00 h 790 W/m 11,3 km/h (2 Bft) 97,86 %
10.08.2018 16:00 23,5 C 24,1 C 21,9 C 48 % 1019,1 hPa 0,0 l/m 0,63 h 0,00 h 504 W/m 12,1 km/h (2 Bft) 96,44 %
10.08.2018 17:00 23,4 C 23,8 C 22,2 C 45 % 1018,6 hPa 0,0 l/m 0,90 h 0,00 h 537 W/m 11,5 km/h (2 Bft) 98,22 %
10.08.2018 18:00 23,4 C 22,9 C 21,9 C 45 % 1018,3 hPa 0,0 l/m 0,53 h 0,00 h 268 W/m 11,0 km/h (2 Bft) 98,79 %
10.08.2018 19:00 22,9 C 22,0 C 21,4 C 47 % 1018,1 hPa 0,0 l/m 0,00 h 0,00 h 85 W/m 10,7 km/h (2 Bft) 96,73 %
10.08.2018 20:00 21,9 C 20,9 C 20,6 C 50 % 1017,9 hPa 0,0 l/m 0,30 h 0,00 h 37 W/m 8,7 km/h (2 Bft) 96,02 %
10.08.2018 21:00 21,0 C 19,7 C 19,7 C 51 % 1017,9 hPa 0,0 l/m 0,00 h 0,00 h 6 W/m 7,0 km/h (2 Bft) 99,64 %
10.08.2018 22:00 20,0 C 18,5 C 18,5 C 54 % 1017,7 hPa 0,0 l/m 0,00 h 0,00 h 0 W/m 5,4 km/h (1 Bft) 97,77 %
10.08.2018 23:00 19,0 C 18,2 C 18,0 C 56 % 1017,6 hPa 0,0 l/m 0,00 h 0,00 h 0 W/m 6,5 km/h (2 Bft) 95,33 %
11.08.2018 00:00 18,5 C 17,5 C 17,4 C 59 % 1017,5 hPa 0,0 l/m 0,00 h 0,00 h 0 W/m 7,0 km/h (2 Bft) 99,58 %
11.08.2018 01:00 18,2 C 17,6 C 17,5 C 61 % 1017,3 hPa 0,0 l/m 0,00 h 0,00 h 0 W/m 7,7 km/h (2 Bft) 97,15 %
11.08.2018 02:00 18,0 C 16,2 C 16,3 C 71 % 1017,9 hPa 0,6 l/m 0,00 h 0,40 h 0 W/m 13,2 km/h (3 Bft) 97,15 %
11.08.2018 03:00 15,2 C 12,8 C 13,0 C 88 % 1018,4 hPa 1,4 l/m 0,00 h 0,80 h 0 W/m 4,4 km/h (1 Bft) 97,62 %
11.08.2018 04:00 14,1 C 12,6 C 12,8 C 92 % 1018,2 hPa 0,0 l/m 0,00 h 0,03 h 0 W/m 1,7 km/h (1 Bft) 96,43 %
11.08.2018 05:00 13,4 C 12,2 C 12,3 C 93 % 1018,5 hPa 0,0 l/m 0,00 h 0,00 h 0 W/m 2,1 km/h (1 Bft) 98,10 %
11.08.2018 06:00 13,2 C 12,2 C 12,3 C 95 % 1019,0 hPa 0,0 l/m 0,00 h 0,00 h 14 W/m 1,1 km/h (1 Bft) 99,20 %
11.08.2018 07:00 13,4 C 12,9 C 13,0 C 96 % 1019,6 hPa 0,0 l/m 0,00 h 0,00 h 41 W/m 2,5 km/h (1 Bft) 95,25 %
11.08.2018 08:00 14,0 C 13,5 C 13,8 C 96 % 1020,2 hPa 0,0 l/m 0,00 h 0,00 h 60 W/m 4,0 km/h (1 Bft) 97,86 %
11.08.2018 09:00 14,9 C 16,7 C 14,9 C 95 % 1020,6 hPa 0,0 l/m 0,93 h 0,00 h 402 W/m 4,4 km/h (1 Bft) 98,60 %
11.08.2018 10:00 17,0 C 19,4 C 16,2 C 81 % 1020,8 hPa 0,0 l/m 0,40 h 0,00 h 352 W/m 7,0 km/h (2 Bft) 95,59 %
11.08.2018 11:00 19,0 C 23,1 C 17,1 C 68 % 1020,8 hPa 0,0 l/m 0,63 h 0,00 h 491 W/m 9,4 km/h (2 Bft) 98,22 %
11.08.2018 12:00 21,2 C 25,2 C 18,4 C 60 % 1020,8 hPa 0,0 l/m 0,37 h 0,00 h 391 W/m 10,1 km/h (2 Bft) 99,11 %
11.08.2018 13:00 21,5 C 23,5 C 19,3 C 56 % 1020,7 hPa 0,0 l/m 0,57 h 0,00 h 574 W/m 9,3 km/h (2 Bft) 96,44 %
11.08.2018 14:00 21,8 C 22,1 C 19,9 C 54 % 1020,6 hPa 0,0 l/m 0,83 h 0,00 h 732 W/m 10,5 km/h (2 Bft) 96,93 %
11.08.2018 15:00 22,2 C 22,8 C 20,5 C 52 % 1020,3 hPa 0,0 l/m 0,77 h 0,00 h 718 W/m 10,2 km/h (2 Bft) 98,01 %
11.08.2018 16:00 22,9 C 24,5 C 21,1 C 48 % 1020,1 hPa 0,0 l/m 0,90 h 0,00 h 697 W/m 8,3 km/h (2 Bft) 98,09 %
11.08.2018 17:00 22,9 C 22,7 C 20,7 C 48 % 1019,9 hPa 0,0 l/m 0,60 h 0,00 h 366 W/m 9,5 km/h (2 Bft) 96,01 %
11.08.2018 18:00 22,0 C 21,6 C 20,1 C 50 % 1019,8 hPa 0,0 l/m 0,40 h 0,00 h 187 W/m 6,3 km/h (2 Bft) 98,30 %
11.08.2018 19:00 21,3 C 20,4 C 19,5 C 52 % 1019,7 hPa 0,0 l/m 0,00 h 0,00 h 76 W/m 6,0 km/h (2 Bft) 99,00 %
11.08.2018 20:00 20,2 C 18,5 C 18,1 C 56 % 1019,5 hPa 0,0 l/m 0,00 h 0,00 h 24 W/m 2,8 km/h (1 Bft) 94,26 %
11.08.2018 21:00 18,4 C 16,1 C 15,8 C 64 % 1019,5 hPa 0,0 l/m 0,00 h 0,00 h 6 W/m 0,0 km/h (0 Bft) 99,08 %
11.08.2018 22:00 16,5 C 14,5 C 14,4 C 71 % 1019,4 hPa 0,0 l/m 0,00 h 0,00 h 0 W/m 0,0 km/h (0 Bft) 98,93 %
11.08.2018 23:00 15,2 C 13,6 C 13,5 C 76 % 1019,3 hPa 0,0 l/m 0,00 h 0,00 h 0 W/m 0,0 km/h (0 Bft) 96,81 %
12.08.2018 00:00 14,2 C 12,6 C 12,8 C 81 % 1019,0 hPa 0,0 l/m 0,00 h 0,00 h 0 W/m 0,0 km/h (0 Bft) 95,93 %
12.08.2018 01:00 13,4 C 12,3 C 12,3 C 82 % 1018,6 hPa 0,0 l/m 0,00 h 0,00 h 0 W/m 0,1 km/h (0 Bft) 98,05 %
12.08.2018 02:00 13,1 C 12,7 C 12,5 C 85 % 1018,0 hPa 0,0 l/m 0,00 h 0,00 h 0 W/m 0,2 km/h (0 Bft) 98,80 %
12.08.2018 03:00 13,0 C 12,8 C 12,4 C 84 % 1017,6 hPa 0,0 l/m 0,00 h 0,00 h 0 W/m 2,9 km/h (1 Bft) 96,77 %
12.08.2018 04:00 13,0 C 12,4 C 12,6 C 82 % 1017,0 hPa 0,0 l/m 0,00 h 0,00 h 0 W/m 6,7 km/h (2 Bft) 97,80 %
12.08.2018 05:00 12,7 C 12,1 C 12,2 C 81 % 1016,3 hPa 0,0 l/m 0,00 h 0,00 h 0 W/m 7,6 km/h (2 Bft) 96,66 %
12.08.2018 06:00 12,4 C 12,1 C 12,2 C 82 % 1015,9 hPa 0,0 l/m 0,17 h 0,00 h 20 W/m 8,1 km/h (2 Bft) 97,64 %
12.08.2018 07:00 12,8 C 12,9 C 12,5 C 83 % 1015,8 hPa 0,0 l/m 0,00 h 0,00 h 47 W/m 9,7 km/h (2 Bft) 99,65 %
12.08.2018 08:00 13,9 C 14,5 C 13,6 C 82 % 1015,5 hPa 0,0 l/m 0,00 h 0,00 h 104 W/m 8,6 km/h (2 Bft) 94,17 %
12.08.2018 09:00 15,7 C 18,2 C 15,4 C 77 % 1015,2 hPa 0,0 l/m 0,63 h 0,00 h 272 W/m 8,6 km/h (2 Bft) 99,00 %
12.08.2018 10:00 19,4 C 23,6 C 18,1 C 66 % 1014,8 hPa 0,0 l/m 1,00 h 0,00 h 525 W/m 8,2 km/h (2 Bft) 99,36 %
12.08.2018 11:00 24,1 C 31,1 C 20,9 C 53 % 1014,3 hPa 0,0 l/m 1,00 h 0,00 h 628 W/m 9,3 km/h (2 Bft) 95,79 %
12.08.2018 12:00 26,8 C 32,2 C 22,5 C 48 % 1013,7 hPa 0,0 l/m 0,53 h 0,00 h 389 W/m 8,3 km/h (2 Bft) 97,86 %
12.08.2018 13:00 27,6 C 29,3 C 23,8 C 48 % 1013,0 hPa 0,0 l/m 0,90 h 0,00 h 662 W/m 8,1 km/h (2 Bft) 97,95 %
12.08.2018 14:00 27,1 C 27,0 C 24,5 C 47 % 1012,1 hPa 0,0 l/m 1,00 h 0,00 h 755 W/m 9,1 km/h (2 Bft) 97,65 %
12.08.2018 15:00 27,7 C 27,8 C 25,2 C 45 % 1011,1 hPa 0,0 l/m 1,00 h 0,00 h 745 W/m 9,3 km/h (2 Bft) 96,23 %
12.08.2018 16:00 28,4 C 29,6 C 25,6 C 43 % 1010,2 hPa 0,0 l/m 1,00 h 0,00 h 586 W/m 9,1 km/h (2 Bft) 98,01 %
12.08.2018 17:00 28,7 C 29,0 C 26,3 C 42 % 1009,4 hPa 0,0 l/m 1,00 h 0,00 h 524 W/m 7,7 km/h (2 Bft) 99,15 %
12.08.2018 18:00 28,9 C 28,8 C 26,5 C 41 % 1008,7 hPa 0,0 l/m 0,90 h 0,00 h 361 W/m 8,7 km/h (2 Bft) 95,38 %
12.08.2018 19:00 28,3 C 27,2 C 24,6 C 41 % 1008,0 hPa 0,0 l/m 0,47 h 0,00 h 109 W/m 6,3 km/h (2 Bft) 97,18 %
12.08.2018 20:00 27,0 C 25,2 C 22,6 C 43 % 1007,7 hPa 0,0 l/m 0,17 h 0,00 h 31 W/m 4,0 km/h (1 Bft) 99,79 %
12.08.2018 21:00 24,8 C 22,1 C 19,9 C 53 % 1007,8 hPa 0,0 l/m 0,00 h 0,00 h 0 W/m 0,4 km/h (0 Bft) 95,44 %
12.08.2018 22:00 22,8 C 21,3 C 18,8 C 54 % 1007,5 hPa 0,0 l/m 0,00 h 0,00 h 0 W/m 2,0 km/h (1 Bft) 97,29 %
12.08.2018 23:00 20,5 C 18,2 C 17,4 C 64 % 1007,1 hPa 0,0 l/m 0,00 h 0,00 h 0 W/m 0,8 km/h (0 Bft) 99,22 %
Min-Datum _ 12.08.18 12.08.18 11.08.18 07.08.18 08.08.18 - - - - 06.08.18 07.08.18
_ Min-Zeit 06:18 05:42 04:48 17:36 01:38 - - - - 00:04 00:02
Minimum _ 12,4 C 11,7 C 12,2 C 30 % 1003,0 hPa - - - - 0,0 km/h (0 Bft) 16,67 %
Max-Datum _ 07.08.18 07.08.18 07.08.18 11.08.18 11.08.18 08.08.18 06.08.18 08.08.18 10.08.18 09.08.18 06.08.18
_ Max-Zeit 17:26 11:58 17:06 07:26 11:42 06:00 12:08 05:40 13:52 18:48 00:02
Maximum _ 36,3 C 44,4 C 33,3 C 96 % 1021,0 hPa 3,0 l/m 0,07 h 0,08 h 1044 W/m 27,0 km/h
S-SW (4 Bft)
100,00 %
Durchschnitt _ 22,1 C 22,1 C 20,0 C 66 % 1012,8 hPa #10,8 l/m #48:30 h #6:12 h 313 W/m 6,1 km/h (2 Bft) 97,48 %
© 2018 W. Hausmann